createdAt,value
2022-08-28T00:03:06.276Z,15.03896
2022-08-28T00:08:07.011Z,14.7069
2022-08-28T00:13:08.182Z,14.77096
2022-08-28T00:18:09.155Z,14.82615
2022-08-28T00:23:10.111Z,14.85755
2022-08-28T00:28:10.838Z,14.64981
2022-08-28T00:33:24.235Z,14.37009
2022-08-28T00:38:25.707Z,14.1706
2022-08-28T00:43:26.703Z,14.05548
2022-08-28T00:48:27.662Z,13.92259
2022-08-28T00:53:29.955Z,13.97968
2022-08-28T00:58:33.948Z,14.10463
2022-08-28T01:03:34.866Z,14.30729
2022-08-28T01:08:35.791Z,14.36438
2022-08-28T01:13:36.730Z,14.37675
2022-08-28T01:18:37.704Z,14.64886
2022-08-28T01:23:38.668Z,14.65552
2022-08-28T01:28:39.630Z,14.54388
2022-08-28T01:33:42.515Z,14.496
2022-08-28T01:38:43.787Z,14.48394
2022-08-28T01:43:44.739Z,14.46523
2022-08-28T01:48:45.685Z,14.56831
2022-08-28T01:53:46.790Z,14.43891
2022-08-28T01:58:47.544Z,14.30349
2022-08-28T02:03:48.526Z,14.33076
2022-08-28T02:08:49.524Z,14.36914
2022-08-28T02:13:50.812Z,14.20041
2022-08-28T02:18:51.574Z,14.02059
2022-08-28T02:23:52.220Z,14.0615
2022-08-28T02:28:52.867Z,14.1132
2022-08-28T02:33:53.802Z,14.17028
2022-08-28T02:38:57.857Z,14.20422
2022-08-28T02:43:58.902Z,14.0688
2022-08-28T02:48:59.761Z,13.88993
2022-08-28T02:54:00.712Z,13.78051
2022-08-28T02:59:01.620Z,13.79193
2022-08-28T03:04:02.581Z,13.8709
2022-08-28T03:09:03.514Z,14.04279
2022-08-28T03:14:04.486Z,13.85726
2022-08-28T03:19:05.461Z,13.85885
2022-08-28T03:24:06.340Z,13.90293
2022-08-28T03:29:07.263Z,13.85948
2022-08-28T03:34:08.228Z,13.87946
2022-08-28T03:39:09.174Z,13.90388
2022-08-28T03:44:10.088Z,13.85758
2022-08-28T03:49:10.817Z,13.9042
2022-08-28T03:54:12.486Z,14.26226
2022-08-28T03:59:13.201Z,14.47728
2022-08-28T04:04:14.149Z,14.57909
2022-08-28T04:09:15.117Z,14.57972
2022-08-28T04:14:15.828Z,14.58385
2022-08-28T04:19:16.444Z,14.42464
2022-08-28T04:24:17.356Z,13.98602
2022-08-28T04:29:18.288Z,13.58737
2022-08-28T04:34:19.256Z,13.38662
2022-08-28T04:39:20.155Z,13.52711
2022-08-28T04:44:21.095Z,13.72247
2022-08-28T04:49:22.046Z,13.76434
2022-08-28T04:54:26.989Z,13.60005
2022-08-28T04:59:28.236Z,13.54804
2022-08-28T05:04:29.214Z,13.49984
2022-08-28T05:09:30.152Z,13.51601
2022-08-28T05:14:31.063Z,13.11292
2022-08-28T05:19:31.969Z,12.92137
2022-08-28T05:24:32.920Z,12.87316
2022-08-28T05:29:33.972Z,13.01746
2022-08-28T05:34:35.180Z,13.32636
2022-08-28T05:39:36.134Z,13.62923
2022-08-28T05:44:37.093Z,14.04533
2022-08-28T05:49:38.093Z,14.33362
2022-08-28T05:54:38.699Z,14.50583
2022-08-28T05:59:39.416Z,14.60129
2022-08-28T06:04:40.075Z,14.62825
2022-08-28T06:09:41.061Z,14.57021
2022-08-28T06:14:41.983Z,14.61302
2022-08-28T06:19:42.943Z,14.64696
2022-08-28T06:24:43.888Z,14.75067
2022-08-28T06:29:44.814Z,14.85596
2022-08-28T06:34:45.767Z,15.06464
2022-08-28T06:39:46.706Z,15.26857
2022-08-28T06:44:47.610Z,15.6314
2022-08-28T06:49:48.560Z,15.78204
2022-08-28T06:54:55.324Z,15.85975
2022-08-28T06:59:56.804Z,16.04782
2022-08-28T07:04:57.762Z,16.20671
2022-08-28T07:09:58.694Z,16.37893
2022-08-28T07:14:59.663Z,16.47122
2022-08-28T07:20:00.615Z,16.60125
2022-08-28T07:25:01.547Z,16.78013
2022-08-28T07:30:02.489Z,16.73985
2022-08-28T07:35:03.179Z,16.78235
2022-08-28T07:40:04.651Z,16.93934
2022-08-28T07:45:06.135Z,17.06335
2022-08-28T07:50:07.073Z,17.33357
2022-08-28T07:55:08.298Z,17.49722
2022-08-28T08:00:09.230Z,17.46329
2022-08-28T08:05:10.002Z,17.47502
2022-08-28T08:10:11.879Z,17.6501
2022-08-28T08:15:12.610Z,17.68118
2022-08-28T08:20:13.607Z,17.73383
2022-08-28T08:25:14.522Z,17.76681
2022-08-28T08:32:26.769Z,17.79948
2022-08-28T08:37:33.386Z,17.99358
2022-08-28T08:45:24.115Z,18.56891
2022-08-28T09:03:18.839Z,19.20292
2022-08-28T09:28:09.797Z,18.70498
2022-08-28T09:35:04.761Z,19.28475
2022-08-28T09:41:26.238Z,19.66757
2022-08-28T09:49:57.336Z,19.57401
2022-08-28T09:55:39.182Z,19.91147
2022-08-28T10:00:40.052Z,19.9175
2022-08-28T10:05:41.332Z,19.97776
2022-08-28T10:10:42.148Z,19.99616
2022-08-28T10:15:53.720Z,19.94605
2022-08-28T10:21:04.739Z,19.89435
2022-08-28T10:26:06.374Z,19.9359
2022-08-28T10:31:07.292Z,20.00218
2022-08-28T10:36:09.314Z,20.16711
2022-08-28T10:41:37.225Z,20.22579
2022-08-28T10:46:38.189Z,20.38437
2022-08-28T10:51:43.587Z,20.40943
2022-08-28T10:56:46.128Z,20.52076
2022-08-28T11:01:56.075Z,20.39706
2022-08-28T11:06:58.067Z,20.39611
2022-08-28T11:12:01.757Z,20.33648
2022-08-28T11:17:03.425Z,20.33236
2022-08-28T11:22:05.522Z,20.22103
2022-08-28T11:27:06.537Z,20.21437
2022-08-28T11:32:07.489Z,20.05166
2022-08-28T11:37:08.343Z,19.93939
2022-08-28T11:42:11.349Z,19.93875
2022-08-28T11:47:12.872Z,19.84868
2022-08-28T11:52:14.026Z,19.7272
2022-08-28T11:57:15.893Z,19.66599
2022-08-28T12:02:16.882Z,19.64823
2022-08-28T12:07:17.618Z,19.61841
2022-08-28T12:12:18.873Z,19.63522
2022-08-28T12:17:19.817Z,19.60351
2022-08-28T12:22:20.762Z,19.58987
2022-08-28T12:27:21.725Z,19.54927
2022-08-28T12:32:22.683Z,19.5055
2022-08-28T12:37:23.645Z,19.5147
2022-08-28T12:42:24.380Z,19.52041
2022-08-28T12:47:25.198Z,19.50296
2022-08-28T12:52:26.723Z,19.53753
2022-08-28T12:57:28.558Z,19.53436
2022-08-28T13:02:29.584Z,19.58892
2022-08-28T13:07:30.454Z,19.76145
2022-08-28T13:12:56.630Z,19.80554
2022-08-28T13:17:58.470Z,19.79571
2022-08-28T13:22:59.447Z,19.98442
2022-08-28T13:28:00.162Z,19.79507
2022-08-28T13:33:00.936Z,19.64823
2022-08-28T13:38:01.856Z,19.62888
2022-08-28T13:55:28.670Z,19.53389
